sensor_id;sensor_type;location;lat;lon;timestamp;temperature;humidity
64634;DHT22;51043;52.406;9.690;2023-03-01T00:01:18;-4.20;99.90
64634;DHT22;51043;52.406;9.690;2023-03-01T00:03:46;-4.30;99.90
64634;DHT22;51043;52.406;9.690;2023-03-01T00:06:13;-4.30;99.90
64634;DHT22;51043;52.406;9.690;2023-03-01T00:08:40;-4.30;99.90
64634;DHT22;51043;52.406;9.690;2023-03-01T00:13:51;-4.30;99.90
64634;DHT22;51043;52.406;9.690;2023-03-01T00:16:27;-4.40;99.90
64634;DHT22;51043;52.406;9.690;2023-03-01T00:18:56;-4.40;99.90
64634;DHT22;51043;52.406;9.690;2023-03-01T00:21:26;-4.40;99.90
64634;DHT22;51043;52.406;9.690;2023-03-01T00:23:54;-4.40;99.90
64634;DHT22;51043;52.406;9.690;2023-03-01T00:26:23;-4.40;99.90
64634;DHT22;51043;52.406;9.690;2023-03-01T00:28:54;-4.40;99.90
64634;DHT22;51043;52.406;9.690;2023-03-01T00:31:31;-4.40;99.90
64634;DHT22;51043;52.406;9.690;2023-03-01T00:34:03;-4.40;99.90
64634;DHT22;51043;52.406;9.690;2023-03-01T00:36:34;-4.40;99.90
64634;DHT22;51043;52.406;9.690;2023-03-01T00:39:01;-4.30;99.90
64634;DHT22;51043;52.406;9.690;2023-03-01T00:41:29;-4.30;99.90
64634;DHT22;51043;52.406;9.690;2023-03-01T00:44:01;-4.40;99.90
64634;DHT22;51043;52.406;9.690;2023-03-01T00:46:28;-4.40;99.90
64634;DHT22;51043;52.406;9.690;2023-03-01T00:49:00;-4.40;99.90
64634;DHT22;51043;52.406;9.690;2023-03-01T00:51:29;-4.50;99.90
64634;DHT22;51043;52.406;9.690;2023-03-01T00:53:59;-4.50;99.90
64634;DHT22;51043;52.406;9.690;2023-03-01T00:56:27;-4.50;99.90
64634;DHT22;51043;52.406;9.690;2023-03-01T00:58:55;-4.60;99.90
64634;DHT22;51043;52.406;9.690;2023-03-01T01:01:30;-4.50;99.90
64634;DHT22;51043;52.406;9.690;2023-03-01T01:04:08;-4.30;99.90
64634;DHT22;51043;52.406;9.690;2023-03-01T01:06:42;-4.30;99.90
64634;DHT22;51043;52.406;9.690;2023-03-01T01:09:12;-4.30;99.90
64634;DHT22;51043;52.406;9.690;2023-03-01T01:11:50;-4.40;99.90
64634;DHT22;51043;52.406;9.690;2023-03-01T01:14:19;-4.40;99.90
64634;DHT22;51043;52.406;9.690;2023-03-01T01:16:53;-4.50;99.90
64634;DHT22;51043;52.406;9.690;2023-03-01T01:19:20;-4.60;99.90
64634;DHT22;51043;52.406;9.690;2023-03-01T01:21:47;-4.60;99.90
64634;DHT22;51043;52.406;9.690;2023-03-01T01:24:16;-4.70;99.90
64634;DHT22;51043;52.406;9.690;2023-03-01T01:26:43;-4.60;99.90
64634;DHT22;51043;52.406;9.690;2023-03-01T01:29:11;-4.70;99.90
64634;DHT22;51043;52.406;9.690;2023-03-01T01:31:41;-4.70;99.90
64634;DHT22;51043;52.406;9.690;2023-03-01T01:34:13;-4.70;99.90
64634;DHT22;51043;52.406;9.690;2023-03-01T01:36:41;-4.70;99.90
64634;DHT22;51043;52.406;9.690;2023-03-01T01:39:08;-4.80;99.90
64634;DHT22;51043;52.406;9.690;2023-03-01T01:41:41;-4.80;99.90
64634;DHT22;51043;52.406;9.690;2023-03-01T01:44:23;-4.90;99.90
64634;DHT22;51043;52.406;9.690;2023-03-01T01:47:06;-4.90;99.90
64634;DHT22;51043;52.406;9.690;2023-03-01T01:49:43;-5.00;99.90
64634;DHT22;51043;52.406;9.690;2023-03-01T01:52:12;-5.00;99.90
64634;DHT22;51043;52.406;9.690;2023-03-01T01:54:54;-5.00;99.90
64634;DHT22;51043;52.406;9.690;2023-03-01T01:57:25;-5.10;99.90
64634;DHT22;51043;52.406;9.690;2023-03-01T01:59:56;-5.10;99.90
64634;DHT22;51043;52.406;9.690;2023-03-01T02:02:25;-5.10;99.90
64634;DHT22;51043;52.406;9.690;2023-03-01T02:04:58;-5.10;99.90
64634;DHT22;51043;52.406;9.690;2023-03-01T02:07:30;-5.10;99.90
64634;DHT22;51043;52.406;9.690;2023-03-01T02:09:58;-5.10;99.90
64634;DHT22;51043;52.406;9.690;2023-03-01T02:12:25;-5.20;99.90
64634;DHT22;51043;52.406;9.690;2023-03-01T02:14:52;-5.20;99.90
64634;DHT22;51043;52.406;9.690;2023-03-01T02:17:20;-5.20;99.90
64634;DHT22;51043;52.406;9.690;2023-03-01T02:20:20;-5.20;99.90
64634;DHT22;51043;52.406;9.690;2023-03-01T02:22:50;-5.30;99.90
64634;DHT22;51043;52.406;9.690;2023-03-01T02:28:32;-5.30;99.90
64634;DHT22;51043;52.406;9.690;2023-03-01T02:31:01;-5.30;99.90
64634;DHT22;51043;52.406;9.690;2023-03-01T02:33:47;-5.30;99.90
64634;DHT22;51043;52.406;9.690;2023-03-01T02:36:24;-5.30;99.90
64634;DHT22;51043;52.406;9.690;2023-03-01T02:38:55;-5.40;99.90
64634;DHT22;51043;52.406;9.690;2023-03-01T02:41:24;-5.30;99.90
64634;DHT22;51043;52.406;9.690;2023-03-01T02:43:54;-5.40;99.90
64634;DHT22;51043;52.406;9.690;2023-03-01T02:46:24;-5.40;99.90
64634;DHT22;51043;52.406;9.690;2023-03-01T02:48:54;-5.40;99.90
64634;DHT22;51043;52.406;9.690;2023-03-01T02:51:42;-5.40;99.90
64634;DHT22;51043;52.406;9.690;2023-03-01T02:54:25;-5.40;99.90
64634;DHT22;51043;52.406;9.690;2023-03-01T02:56:55;-5.40;99.90
64634;DHT22;51043;52.406;9.690;2023-03-01T02:59:26;-5.50;99.90
64634;DHT22;51043;52.406;9.690;2023-03-01T03:01:54;-5.40;99.90
64634;DHT22;51043;52.406;9.690;2023-03-01T03:04:21;-5.40;99.90
64634;DHT22;51043;52.406;9.690;2023-03-01T03:06:50;-5.40;99.90
64634;DHT22;51043;52.406;9.690;2023-03-01T03:09:18;-5.50;99.90
64634;DHT22;51043;52.406;9.690;2023-03-01T03:11:45;-5.50;99.90
64634;DHT22;51043;52.406;9.690;2023-03-01T03:14:14;-5.50;99.90
64634;DHT22;51043;52.406;9.690;2023-03-01T03:16:46;-5.60;99.90
64634;DHT22;51043;52.406;9.690;2023-03-01T03:19:15;-5.60;99.90
64634;DHT22;51043;52.406;9.690;2023-03-01T03:21:43;-5.60;99.90
64634;DHT22;51043;52.406;9.690;2023-03-01T03:24:10;-5.60;99.90
64634;DHT22;51043;52.406;9.690;2023-03-01T03:26:36;-5.60;99.90
64634;DHT22;51043;52.406;9.690;2023-03-01T03:29:03;-5.70;99.90
64634;DHT22;51043;52.406;9.690;2023-03-01T03:31:30;-5.60;99.90
64634;DHT22;51043;52.406;9.690;2023-03-01T03:33:57;-5.60;99.90
64634;DHT22;51043;52.406;9.690;2023-03-01T03:36:25;-5.70;99.90
64634;DHT22;51043;52.406;9.690;2023-03-01T03:38:52;-5.70;99.90
64634;DHT22;51043;52.406;9.690;2023-03-01T03:41:19;-5.70;99.90
64634;DHT22;51043;52.406;9.690;2023-03-01T03:43:46;-5.70;99.90
64634;DHT22;51043;52.406;9.690;2023-03-01T03:46:13;-5.70;99.90
64634;DHT22;51043;52.406;9.690;2023-03-01T03:48:42;-5.70;99.90
64634;DHT22;51043;52.406;9.690;2023-03-01T03:51:11;-5.70;99.90
64634;DHT22;51043;52.406;9.690;2023-03-01T03:53:39;-5.70;99.90
64634;DHT22;51043;52.406;9.690;2023-03-01T03:56:06;-5.70;99.90
64634;DHT22;51043;52.406;9.690;2023-03-01T03:58:33;-5.70;99.90
64634;DHT22;51043;52.406;9.690;2023-03-01T04:01:00;-5.70;99.90
64634;DHT22;51043;52.406;9.690;2023-03-01T04:03:28;-5.70;99.90
64634;DHT22;51043;52.406;9.690;2023-03-01T04:05:58;-5.70;99.90
64634;DHT22;51043;52.406;9.690;2023-03-01T04:08:26;-5.70;99.90
64634;DHT22;51043;52.406;9.690;2023-03-01T04:10:58;-5.80;99.90
64634;DHT22;51043;52.406;9.690;2023-03-01T04:13:27;-5.80;99.90
64634;DHT22;51043;52.406;9.690;2023-03-01T04:15:54;-5.80;99.90
64634;DHT22;51043;52.406;9.690;2023-03-01T04:18:22;-5.80;99.90
64634;DHT22;51043;52.406;9.690;2023-03-01T04:20:50;-5.80;99.90
64634;DHT22;51043;52.406;9.690;2023-03-01T04:23:20;-5.80;99.90
64634;DHT22;51043;52.406;9.690;2023-03-01T04:28:24;-5.90;99.90
64634;DHT22;51043;52.406;9.690;2023-03-01T04:30:53;-5.90;99.90
64634;DHT22;51043;52.406;9.690;2023-03-01T04:33:20;-6.00;99.90
64634;DHT22;51043;52.406;9.690;2023-03-01T04:35:47;-5.90;99.90
64634;DHT22;51043;52.406;9.690;2023-03-01T04:38:19;-6.00;99.90
64634;DHT22;51043;52.406;9.690;2023-03-01T04:40:46;-6.00;99.90
64634;DHT22;51043;52.406;9.690;2023-03-01T04:43:13;-6.00;99.90
64634;DHT22;51043;52.406;9.690;2023-03-01T04:45:41;-6.00;99.90
64634;DHT22;51043;52.406;9.690;2023-03-01T04:48:08;-6.00;99.90
64634;DHT22;51043;52.406;9.690;2023-03-01T04:50:35;-6.00;99.90
64634;DHT22;51043;52.406;9.690;2023-03-01T04:53:02;-6.10;99.90
64634;DHT22;51043;52.406;9.690;2023-03-01T04:55:29;-6.10;99.90
64634;DHT22;51043;52.406;9.690;2023-03-01T04:57:56;-6.10;99.90
64634;DHT22;51043;52.406;9.690;2023-03-01T05:00:23;-6.10;99.90
64634;DHT22;51043;52.406;9.690;2023-03-01T05:02:59;-6.10;99.90
64634;DHT22;51043;52.406;9.690;2023-03-01T05:05:27;-6.10;99.90
64634;DHT22;51043;52.406;9.690;2023-03-01T05:07:56;-6.10;99.90
64634;DHT22;51043;52.406;9.690;2023-03-01T05:10:28;-6.10;99.90
64634;DHT22;51043;52.406;9.690;2023-03-01T05:12:57;-6.10;99.90
64634;DHT22;51043;52.406;9.690;2023-03-01T05:15:25;-6.20;99.90
64634;DHT22;51043;52.406;9.690;2023-03-01T05:17:54;-6.10;99.90
64634;DHT22;51043;52.406;9.690;2023-03-01T05:20:21;-6.20;99.90
64634;DHT22;51043;52.406;9.690;2023-03-01T05:22:56;-6.20;99.90
64634;DHT22;51043;52.406;9.690;2023-03-01T05:25:23;-6.20;99.90
64634;DHT22;51043;52.406;9.690;2023-03-01T05:27:50;-6.20;99.90
64634;DHT22;51043;52.406;9.690;2023-03-01T05:30:17;-6.20;99.90
64634;DHT22;51043;52.406;9.690;2023-03-01T05:32:47;-6.20;99.90
64634;DHT22;51043;52.406;9.690;2023-03-01T05:35:16;-6.20;99.90
64634;DHT22;51043;52.406;9.690;2023-03-01T05:37:46;-6.20;99.90
64634;DHT22;51043;52.406;9.690;2023-03-01T05:40:17;-6.20;99.90
64634;DHT22;51043;52.406;9.690;2023-03-01T05:42:46;-6.30;99.90
64634;DHT22;51043;52.406;9.690;2023-03-01T05:45:15;-6.30;99.90
64634;DHT22;51043;52.406;9.690;2023-03-01T05:47:45;-6.30;99.90
64634;DHT22;51043;52.406;9.690;2023-03-01T05:50:24;-6.30;99.90
64634;DHT22;51043;52.406;9.690;2023-03-01T05:52:59;-6.30;99.90
64634;DHT22;51043;52.406;9.690;2023-03-01T05:55:28;-6.40;99.90
64634;DHT22;51043;52.406;9.690;2023-03-01T05:57:58;-6.40;99.90
64634;DHT22;51043;52.406;9.690;2023-03-01T06:00:26;-6.40;99.90
64634;DHT22;51043;52.406;9.690;2023-03-01T06:02:57;-6.40;99.90
64634;DHT22;51043;52.406;9.690;2023-03-01T06:05:25;-6.40;99.90
64634;DHT22;51043;52.406;9.690;2023-03-01T06:07:52;-6.40;99.90
64634;DHT22;51043;52.406;9.690;2023-03-01T06:10:22;-6.40;99.90
64634;DHT22;51043;52.406;9.690;2023-03-01T06:12:55;-6.40;99.90
64634;DHT22;51043;52.406;9.690;2023-03-01T06:15:23;-6.40;99.90
64634;DHT22;51043;52.406;9.690;2023-03-01T06:17:50;-6.40;99.90
64634;DHT22;51043;52.406;9.690;2023-03-01T06:20:20;-6.40;99.90
64634;DHT22;51043;52.406;9.690;2023-03-01T06:22:48;-6.30;99.90
64634;DHT22;51043;52.406;9.690;2023-03-01T06:25:19;-6.30;99.90
64634;DHT22;51043;52.406;9.690;2023-03-01T06:27:46;-6.20;99.90
64634;DHT22;51043;52.406;9.690;2023-03-01T06:30:15;-6.10;99.90
64634;DHT22;51043;52.406;9.690;2023-03-01T06:32:43;-6.10;99.90
64634;DHT22;51043;52.406;9.690;2023-03-01T06:35:12;-6.10;99.90
64634;DHT22;51043;52.406;9.690;2023-03-01T06:37:40;-6.10;99.90
64634;DHT22;51043;52.406;9.690;2023-03-01T06:40:08;-6.00;99.90
64634;DHT22;51043;52.406;9.690;2023-03-01T06:42:35;-6.00;99.90
64634;DHT22;51043;52.406;9.690;2023-03-01T06:45:03;-6.00;99.90
64634;DHT22;51043;52.406;9.690;2023-03-01T06:47:31;-5.90;99.90
64634;DHT22;51043;52.406;9.690;2023-03-01T06:50:00;-5.80;99.90
64634;DHT22;51043;52.406;9.690;2023-03-01T06:52:28;-5.70;99.90
64634;DHT22;51043;52.406;9.690;2023-03-01T06:54:55;-5.70;99.90
64634;DHT22;51043;52.406;9.690;2023-03-01T06:57:22;-5.70;99.90
64634;DHT22;51043;52.406;9.690;2023-03-01T06:59:48;-5.60;99.90
64634;DHT22;51043;52.406;9.690;2023-03-01T07:02:15;-5.50;99.90
64634;DHT22;51043;52.406;9.690;2023-03-01T07:04:51;-5.10;99.90
64634;DHT22;51043;52.406;9.690;2023-03-01T07:07:21;-4.00;99.90
64634;DHT22;51043;52.406;9.690;2023-03-01T07:09:49;-2.80;99.90
64634;DHT22;51043;52.406;9.690;2023-03-01T07:12:16;-1.50;99.90
64634;DHT22;51043;52.406;9.690;2023-03-01T07:14:43;-0.20;99.90
64634;DHT22;51043;52.406;9.690;2023-03-01T07:17:10;1.20;99.90
64634;DHT22;51043;52.406;9.690;2023-03-01T07:19:42;2.30;99.90
64634;DHT22;51043;52.406;9.690;2023-03-01T07:22:10;3.30;99.90
64634;DHT22;51043;52.406;9.690;2023-03-01T07:24:40;4.00;99.90
64634;DHT22;51043;52.406;9.690;2023-03-01T07:27:07;4.80;99.90
64634;DHT22;51043;52.406;9.690;2023-03-01T07:29:36;5.10;99.90
64634;DHT22;51043;52.406;9.690;2023-03-01T07:32:03;4.60;99.90
64634;DHT22;51043;52.406;9.690;2023-03-01T07:34:31;3.70;99.90
64634;DHT22;51043;52.406;9.690;2023-03-01T07:36:58;2.70;99.90
64634;DHT22;51043;52.406;9.690;2023-03-01T07:39:25;1.80;99.90
64634;DHT22;51043;52.406;9.690;2023-03-01T07:41:54;1.00;99.90
64634;DHT22;51043;52.406;9.690;2023-03-01T07:44:22;0.40;99.90
64634;DHT22;51043;52.406;9.690;2023-03-01T07:46:49;0.10;99.90
64634;DHT22;51043;52.406;9.690;2023-03-01T07:49:15;0.60;99.90
64634;DHT22;51043;52.406;9.690;2023-03-01T07:51:43;2.20;99.90
64634;DHT22;51043;52.406;9.690;2023-03-01T07:54:10;4.10;99.90
64634;DHT22;51043;52.406;9.690;2023-03-01T07:56:36;6.00;99.90
64634;DHT22;51043;52.406;9.690;2023-03-01T07:59:03;7.70;99.90
64634;DHT22;51043;52.406;9.690;2023-03-01T08:01:30;8.80;99.90
64634;DHT22;51043;52.406;9.690;2023-03-01T08:03:57;9.90;97.70
64634;DHT22;51043;52.406;9.690;2023-03-01T08:06:24;10.80;91.50
64634;DHT22;51043;52.406;9.690;2023-03-01T08:08:51;11.70;78.10
64634;DHT22;51043;52.406;9.690;2023-03-01T08:11:18;12.30;73.10
64634;DHT22;51043;52.406;9.690;2023-03-01T08:13:47;12.90;68.00
64634;DHT22;51043;52.406;9.690;2023-03-01T08:16:16;13.80;64.80
64634;DHT22;51043;52.406;9.690;2023-03-01T08:18:43;14.70;58.50
64634;DHT22;51043;52.406;9.690;2023-03-01T08:21:13;14.80;54.40
64634;DHT22;51043;52.406;9.690;2023-03-01T08:23:41;15.30;51.90
64634;DHT22;51043;52.406;9.690;2023-03-01T08:26:14;15.60;49.20
64634;DHT22;51043;52.406;9.690;2023-03-01T08:28:41;15.40;46.80
64634;DHT22;51043;52.406;9.690;2023-03-01T08:33:45;15.80;46.40
64634;DHT22;51043;52.406;9.690;2023-03-01T08:36:33;16.00;44.70
64634;DHT22;51043;52.406;9.690;2023-03-01T08:39:01;15.90;45.30
64634;DHT22;51043;52.406;9.690;2023-03-01T08:41:28;15.80;45.50
64634;DHT22;51043;52.406;9.690;2023-03-01T08:43:55;15.80;44.00
64634;DHT22;51043;52.406;9.690;2023-03-01T08:46:31;15.40;44.80
64634;DHT22;51043;52.406;9.690;2023-03-01T08:48:58;14.80;45.30
64634;DHT22;51043;52.406;9.690;2023-03-01T08:51:26;14.10;45.40
64634;DHT22;51043;52.406;9.690;2023-03-01T08:53:53;13.60;46.60
64634;DHT22;51043;52.406;9.690;2023-03-01T08:56:23;13.30;45.80
64634;DHT22;51043;52.406;9.690;2023-03-01T08:58:50;13.30;48.40
64634;DHT22;51043;52.406;9.690;2023-03-01T09:01:18;13.30;47.00
64634;DHT22;51043;52.406;9.690;2023-03-01T09:03:46;13.00;46.50
64634;DHT22;51043;52.406;9.690;2023-03-01T09:06:13;12.40;47.80
64634;DHT22;51043;52.406;9.690;2023-03-01T09:08:44;12.60;48.10
64634;DHT22;51043;52.406;9.690;2023-03-01T09:11:14;12.90;47.60
64634;DHT22;51043;52.406;9.690;2023-03-01T09:13:46;13.10;47.30
64634;DHT22;51043;52.406;9.690;2023-03-01T09:16:15;12.80;48.00
64634;DHT22;51043;52.406;9.690;2023-03-01T09:18:48;12.50;49.00
64634;DHT22;51043;52.406;9.690;2023-03-01T09:21:16;12.70;48.80
64634;DHT22;51043;52.406;9.690;2023-03-01T09:23:47;13.00;47.70
64634;DHT22;51043;52.406;9.690;2023-03-01T09:26:18;11.90;48.20
64634;DHT22;51043;52.406;9.690;2023-03-01T09:28:50;11.00;48.80
64634;DHT22;51043;52.406;9.690;2023-03-01T09:31:19;10.70;51.00
64634;DHT22;51043;52.406;9.690;2023-03-01T09:33:52;10.20;52.60
64634;DHT22;51043;52.406;9.690;2023-03-01T09:36:24;9.80;54.70
64634;DHT22;51043;52.406;9.690;2023-03-01T09:38:52;8.60;56.00
64634;DHT22;51043;52.406;9.690;2023-03-01T09:41:45;8.00;58.80
64634;DHT22;51043;52.406;9.690;2023-03-01T09:44:41;7.30;62.80
64634;DHT22;51043;52.406;9.690;2023-03-01T09:47:27;6.80;64.90
64634;DHT22;51043;52.406;9.690;2023-03-01T09:50:15;6.20;71.80
64634;DHT22;51043;52.406;9.690;2023-03-01T09:53:04;5.90;79.40
64634;DHT22;51043;52.406;9.690;2023-03-01T09:58:52;5.90;83.40
64634;DHT22;51043;52.406;9.690;2023-03-01T10:04:31;6.40;83.60
64634;DHT22;51043;52.406;9.690;2023-03-01T10:09:36;8.70;70.10
64634;DHT22;51043;52.406;9.690;2023-03-01T10:12:20;10.60;63.50
64634;DHT22;51043;52.406;9.690;2023-03-01T10:14:53;12.00;54.60
64634;DHT22;51043;52.406;9.690;2023-03-01T10:17:26;13.00;49.60
64634;DHT22;51043;52.406;9.690;2023-03-01T10:19:55;13.80;47.90
64634;DHT22;51043;52.406;9.690;2023-03-01T10:22:29;15.00;44.50
64634;DHT22;51043;52.406;9.690;2023-03-01T10:25:01;15.70;42.90
64634;DHT22;51043;52.406;9.690;2023-03-01T10:27:52;16.60;39.70
64634;DHT22;51043;52.406;9.690;2023-03-01T10:30:32;16.60;39.30
64634;DHT22;51043;52.406;9.690;2023-03-01T10:33:01;15.80;37.90
64634;DHT22;51043;52.406;9.690;2023-03-01T10:35:33;15.80;37.90
64634;DHT22;51043;52.406;9.690;2023-03-01T10:38:08;16.30;37.70
64634;DHT22;51043;52.406;9.690;2023-03-01T10:40:36;16.90;37.40
64634;DHT22;51043;52.406;9.690;2023-03-01T10:43:04;16.80;35.00
64634;DHT22;51043;52.406;9.690;2023-03-01T10:45:39;16.30;35.70
64634;DHT22;51043;52.406;9.690;2023-03-01T10:48:15;16.10;36.40
64634;DHT22;51043;52.406;9.690;2023-03-01T10:50:45;15.40;37.40
64634;DHT22;51043;52.406;9.690;2023-03-01T10:53:57;15.10;38.00
64634;DHT22;51043;52.406;9.690;2023-03-01T10:56:18;15.10;37.90
64634;DHT22;51043;52.406;9.690;2023-03-01T10:59:19;15.40;38.10
64634;DHT22;51043;52.406;9.690;2023-03-01T11:07:29;18.40;33.30
64634;DHT22;51043;52.406;9.690;2023-03-01T11:09:57;17.80;32.90
64634;DHT22;51043;52.406;9.690;2023-03-01T11:12:24;17.90;34.60
64634;DHT22;51043;52.406;9.690;2023-03-01T11:14:55;18.50;33.60
64634;DHT22;51043;52.406;9.690;2023-03-01T11:17:30;19.10;32.70
64634;DHT22;51043;52.406;9.690;2023-03-01T11:22:53;18.20;33.10
64634;DHT22;51043;52.406;9.690;2023-03-01T11:25:27;18.00;33.20
64634;DHT22;51043;52.406;9.690;2023-03-01T11:27:56;18.20;31.60
64634;DHT22;51043;52.406;9.690;2023-03-01T11:39:36;21.10;28.70
64634;DHT22;51043;52.406;9.690;2023-03-01T11:42:19;20.10;28.90
64634;DHT22;51043;52.406;9.690;2023-03-01T11:44:52;19.30;30.20
64634;DHT22;51043;52.406;9.690;2023-03-01T11:47:59;19.70;29.70
64634;DHT22;51043;52.406;9.690;2023-03-01T11:50:47;19.80;28.90
64634;DHT22;51043;52.406;9.690;2023-03-01T11:53:26;20.40;28.80
64634;DHT22;51043;52.406;9.690;2023-03-01T11:56:40;19.90;29.00
64634;DHT22;51043;52.406;9.690;2023-03-01T11:59:16;20.00;28.90
64634;DHT22;51043;52.406;9.690;2023-03-01T12:10:40;19.90;29.90
64634;DHT22;51043;52.406;9.690;2023-03-01T12:19:33;19.80;29.00
64634;DHT22;51043;52.406;9.690;2023-03-01T12:22:23;19.50;28.20
64634;DHT22;51043;52.406;9.690;2023-03-01T12:33:19;18.30;29.20
64634;DHT22;51043;52.406;9.690;2023-03-01T12:38:49;18.40;29.80
64634;DHT22;51043;52.406;9.690;2023-03-01T12:50:21;18.50;28.40
64634;DHT22;51043;52.406;9.690;2023-03-01T12:52:58;16.60;30.50
64634;DHT22;51043;52.406;9.690;2023-03-01T12:55:35;14.10;33.10
64634;DHT22;51043;52.406;9.690;2023-03-01T12:58:23;12.30;35.80
64634;DHT22;51043;52.406;9.690;2023-03-01T13:03:56;9.50;41.70
64634;DHT22;51043;52.406;9.690;2023-03-01T13:06:38;8.90;43.90
64634;DHT22;51043;52.406;9.690;2023-03-01T13:11:45;8.20;47.70
64634;DHT22;51043;52.406;9.690;2023-03-01T13:16:52;7.60;48.80
64634;DHT22;51043;52.406;9.690;2023-03-01T13:19:25;7.40;49.00
64634;DHT22;51043;52.406;9.690;2023-03-01T13:21:54;7.40;50.00
64634;DHT22;51043;52.406;9.690;2023-03-01T13:24:29;7.20;49.30
64634;DHT22;51043;52.406;9.690;2023-03-01T13:29:55;7.00;51.40
64634;DHT22;51043;52.406;9.690;2023-03-01T13:32:34;6.90;51.80
64634;DHT22;51043;52.406;9.690;2023-03-01T13:37:45;6.70;53.10
64634;DHT22;51043;52.406;9.690;2023-03-01T13:42:45;6.70;53.80
64634;DHT22;51043;52.406;9.690;2023-03-01T13:45:34;6.70;54.00
64634;DHT22;51043;52.406;9.690;2023-03-01T13:48:15;6.60;55.00
64634;DHT22;51043;52.406;9.690;2023-03-01T13:50:49;6.60;54.90
64634;DHT22;51043;52.406;9.690;2023-03-01T13:53:19;6.50;54.20
64634;DHT22;51043;52.406;9.690;2023-03-01T13:55:57;6.40;54.80
64634;DHT22;51043;52.406;9.690;2023-03-01T13:58:31;6.40;54.00
64634;DHT22;51043;52.406;9.690;2023-03-01T14:01:07;6.40;54.80
64634;DHT22;51043;52.406;9.690;2023-03-01T14:03:41;6.40;54.50
64634;DHT22;51043;52.406;9.690;2023-03-01T14:06:12;6.30;54.40
64634;DHT22;51043;52.406;9.690;2023-03-01T14:08:46;6.30;55.10
64634;DHT22;51043;52.406;9.690;2023-03-01T14:14:21;6.20;56.20
64634;DHT22;51043;52.406;9.690;2023-03-01T14:19:37;6.30;56.60
64634;DHT22;51043;52.406;9.690;2023-03-01T14:22:28;6.30;56.00
64634;DHT22;51043;52.406;9.690;2023-03-01T14:25:00;6.20;56.90
64634;DHT22;51043;52.406;9.690;2023-03-01T14:27:38;6.10;57.70
64634;DHT22;51043;52.406;9.690;2023-03-01T14:30:15;6.00;57.30
64634;DHT22;51043;52.406;9.690;2023-03-01T14:32:57;6.00;57.60
64634;DHT22;51043;52.406;9.690;2023-03-01T14:35:30;6.00;58.20
64634;DHT22;51043;52.406;9.690;2023-03-01T14:37:58;6.00;59.10
64634;DHT22;51043;52.406;9.690;2023-03-01T14:40:29;6.00;58.80
64634;DHT22;51043;52.406;9.690;2023-03-01T14:43:00;6.10;58.80
64634;DHT22;51043;52.406;9.690;2023-03-01T14:45:29;6.00;58.80
64634;DHT22;51043;52.406;9.690;2023-03-01T14:48:00;6.00;59.40
64634;DHT22;51043;52.406;9.690;2023-03-01T14:50:31;6.00;59.60
64634;DHT22;51043;52.406;9.690;2023-03-01T14:53:01;6.00;58.20
64634;DHT22;51043;52.406;9.690;2023-03-01T14:57:57;6.00;56.80
64634;DHT22;51043;52.406;9.690;2023-03-01T15:00:30;6.00;57.70
64634;DHT22;51043;52.406;9.690;2023-03-01T15:03:07;6.10;56.90
64634;DHT22;51043;52.406;9.690;2023-03-01T15:05:42;6.00;57.40
64634;DHT22;51043;52.406;9.690;2023-03-01T15:08:19;5.90;57.40
64634;DHT22;51043;52.406;9.690;2023-03-01T15:11:15;5.90;56.90
64634;DHT22;51043;52.406;9.690;2023-03-01T15:13:43;5.70;57.50
64634;DHT22;51043;52.406;9.690;2023-03-01T15:18:47;5.80;58.70
64634;DHT22;51043;52.406;9.690;2023-03-01T15:21:21;5.70;59.30
64634;DHT22;51043;52.406;9.690;2023-03-01T15:23:52;5.70;59.60
64634;DHT22;51043;52.406;9.690;2023-03-01T15:26:30;5.70;59.80
64634;DHT22;51043;52.406;9.690;2023-03-01T15:28:59;5.80;59.80
64634;DHT22;51043;52.406;9.690;2023-03-01T15:31:29;5.80;59.30
64634;DHT22;51043;52.406;9.690;2023-03-01T15:34:25;5.90;59.70
64634;DHT22;51043;52.406;9.690;2023-03-01T15:36:54;5.90;60.70
64634;DHT22;51043;52.406;9.690;2023-03-01T15:39:31;5.80;61.10
64634;DHT22;51043;52.406;9.690;2023-03-01T15:41:59;5.80;61.60
64634;DHT22;51043;52.406;9.690;2023-03-01T15:44:32;5.80;61.80
64634;DHT22;51043;52.406;9.690;2023-03-01T15:47:29;5.80;62.40
64634;DHT22;51043;52.406;9.690;2023-03-01T15:49:57;5.80;61.30
64634;DHT22;51043;52.406;9.690;2023-03-01T15:52:39;5.90;60.60
64634;DHT22;51043;52.406;9.690;2023-03-01T15:55:19;6.00;60.10
64634;DHT22;51043;52.406;9.690;2023-03-01T15:57:46;6.00;60.90
64634;DHT22;51043;52.406;9.690;2023-03-01T16:00:14;6.00;61.90
64634;DHT22;51043;52.406;9.690;2023-03-01T16:02:43;6.00;63.30
64634;DHT22;51043;52.406;9.690;2023-03-01T16:05:20;5.90;62.90
64634;DHT22;51043;52.406;9.690;2023-03-01T16:07:47;5.90;63.50
64634;DHT22;51043;52.406;9.690;2023-03-01T16:10:15;5.90;64.40
64634;DHT22;51043;52.406;9.690;2023-03-01T16:12:41;5.90;64.30
64634;DHT22;51043;52.406;9.690;2023-03-01T16:15:23;5.90;64.60
64634;DHT22;51043;52.406;9.690;2023-03-01T16:17:51;5.80;66.10
64634;DHT22;51043;52.406;9.690;2023-03-01T16:20:22;5.70;66.80
64634;DHT22;51043;52.406;9.690;2023-03-01T16:22:54;5.60;69.40
64634;DHT22;51043;52.406;9.690;2023-03-01T16:25:21;5.50;70.40
64634;DHT22;51043;52.406;9.690;2023-03-01T16:27:49;5.40;71.80
64634;DHT22;51043;52.406;9.690;2023-03-01T16:30:19;5.20;74.10
64634;DHT22;51043;52.406;9.690;2023-03-01T16:32:47;5.10;76.40
64634;DHT22;51043;52.406;9.690;2023-03-01T16:35:17;5.00;78.50
64634;DHT22;51043;52.406;9.690;2023-03-01T16:37:44;5.10;78.60
64634;DHT22;51043;52.406;9.690;2023-03-01T16:40:26;4.90;80.00
64634;DHT22;51043;52.406;9.690;2023-03-01T16:42:55;4.90;81.60
64634;DHT22;51043;52.406;9.690;2023-03-01T16:45:27;4.90;82.40
64634;DHT22;51043;52.406;9.690;2023-03-01T16:47:55;4.80;83.80
64634;DHT22;51043;52.406;9.690;2023-03-01T16:50:22;4.80;87.30
64634;DHT22;51043;52.406;9.690;2023-03-01T16:52:49;4.60;87.30
64634;DHT22;51043;52.406;9.690;2023-03-01T16:55:16;4.50;90.20
64634;DHT22;51043;52.406;9.690;2023-03-01T16:57:43;4.30;91.00
64634;DHT22;51043;52.406;9.690;2023-03-01T17:00:12;4.10;92.40
64634;DHT22;51043;52.406;9.690;2023-03-01T17:02:40;4.10;93.40
64634;DHT22;51043;52.406;9.690;2023-03-01T17:05:09;4.00;94.70
64634;DHT22;51043;52.406;9.690;2023-03-01T17:07:38;3.80;95.50
64634;DHT22;51043;52.406;9.690;2023-03-01T17:10:08;3.70;97.20
64634;DHT22;51043;52.406;9.690;2023-03-01T17:12:35;3.60;98.90
64634;DHT22;51043;52.406;9.690;2023-03-01T17:15:04;3.50;99.90
64634;DHT22;51043;52.406;9.690;2023-03-01T17:17:31;3.30;99.90
64634;DHT22;51043;52.406;9.690;2023-03-01T17:19:58;3.20;99.90
64634;DHT22;51043;52.406;9.690;2023-03-01T17:22:25;3.20;99.90
64634;DHT22;51043;52.406;9.690;2023-03-01T17:24:52;3.00;99.90
64634;DHT22;51043;52.406;9.690;2023-03-01T17:27:19;2.90;99.90
64634;DHT22;51043;52.406;9.690;2023-03-01T17:29:46;2.80;99.90
64634;DHT22;51043;52.406;9.690;2023-03-01T17:32:13;2.70;99.90
64634;DHT22;51043;52.406;9.690;2023-03-01T17:34:40;2.60;99.90
64634;DHT22;51043;52.406;9.690;2023-03-01T17:37:07;2.40;99.90
64634;DHT22;51043;52.406;9.690;2023-03-01T17:39:34;2.30;99.90
64634;DHT22;51043;52.406;9.690;2023-03-01T17:42:03;2.20;99.90